Centenario do Sul Airport


Codes: SSZS/0
Name: Centenario do Sul Airport
City: Centenario Do Sul
Country: Brazil
Elevation: 1591 ft.

Photos at Centenario do Sul Airport


   Photos courtesy of SpottingLog. You can add your own sightings and photos by signing up for a free trial today.



No photos found.

Weather at Centenario do Sul Airport


Time (UTC)DescriptionTempratureWindCloud coverageVisibilityPressureHumidity
17-Jun-2024 06:00Clear Sky18°C4 mph, E10%10000m1014hPa49%
17-Jun-2024 09:00Scattered Clouds18°C4 mph, NE28%10000m1014hPa52%
17-Jun-2024 12:00Scattered Clouds20°C9 mph, NE38%10000m1015hPa43%
17-Jun-2024 15:00Overcast Clouds29°C11 mph, N100%10000m1014hPa23%
17-Jun-2024 18:00Overcast Clouds31°C9 mph, N91%10000m1011hPa22%
17-Jun-2024 21:00Clear Sky25°C7 mph, NE7%10000m1010hPa32%
18-Jun-2024 00:00Clear Sky21°C4 mph, NE3%10000m1011hPa39%
18-Jun-2024 03:00Clear Sky19°C7 mph, E0%10000m1012hPa43%
18-Jun-2024 06:00Clear Sky17°C4 mph, E2%10000m1012hPa47%
18-Jun-2024 09:00Clear Sky16°C7 mph, E4%10000m1013hPa49%
18-Jun-2024 12:00Clear Sky21°C9 mph, NE7%10000m1015hPa35%
18-Jun-2024 15:00Few Clouds29°C13 mph, N14%10000m1014hPa22%
18-Jun-2024 18:00Scattered Clouds32°C11 mph, N32%10000m1010hPa18%
18-Jun-2024 21:00Scattered Clouds25°C4 mph, NE44%10000m1010hPa26%
19-Jun-2024 00:00Scattered Clouds21°C4 mph, E27%10000m1012hPa31%
19-Jun-2024 03:00Clear Sky18°C7 mph, E4%10000m1013hPa34%
19-Jun-2024 06:00Clear Sky17°C7 mph, E2%10000m1013hPa41%
19-Jun-2024 09:00Clear Sky15°C7 mph, E0%10000m1013hPa48%
19-Jun-2024 12:00Clear Sky21°C9 mph, E0%10000m1016hPa36%
19-Jun-2024 15:00Clear Sky30°C11 mph, NE0%10000m1014hPa22%
19-Jun-2024 18:00Clear Sky33°C9 mph, N1%10000m1011hPa15%
19-Jun-2024 21:00Clear Sky25°C2 mph, NE5%10000m1011hPa24%
20-Jun-2024 00:00Clear Sky22°C4 mph, E5%10000m1013hPa27%
20-Jun-2024 03:00Clear Sky20°C7 mph, E5%10000m1014hPa31%
20-Jun-2024 06:00Clear Sky18°C7 mph, E3%10000m1014hPa41%
20-Jun-2024 09:00Clear Sky17°C7 mph, E1%10000m1014hPa46%
20-Jun-2024 12:00Clear Sky22°C9 mph, E3%10000m1016hPa35%
20-Jun-2024 15:00Clear Sky31°C11 mph, NE6%10000m1015hPa19%
20-Jun-2024 18:00Clear Sky33°C11 mph, N6%10000m1011hPa16%
20-Jun-2024 21:00Clear Sky26°C2 mph, NE4%10000m1012hPa25%
21-Jun-2024 00:00Clear Sky23°C7 mph, SE5%10000m1014hPa31%
21-Jun-2024 03:00Clear Sky20°C9 mph, E5%10000m1014hPa37%
21-Jun-2024 06:00Clear Sky19°C11 mph, E5%10000m1013hPa37%
21-Jun-2024 09:00Scattered Clouds17°C11 mph, E48%10000m1014hPa52%
21-Jun-2024 12:00Broken Clouds21°C13 mph, E54%10000m1016hPa50%
21-Jun-2024 15:00Broken Clouds29°C13 mph, NE60%10000m1014hPa25%
21-Jun-2024 18:00Scattered Clouds34°C11 mph, N48%10000m1010hPa18%
21-Jun-2024 21:00Scattered Clouds27°C4 mph, NE38%10000m1010hPa28%
22-Jun-2024 00:00Broken Clouds23°C4 mph, E63%10000m1012hPa34%
22-Jun-2024 03:00Overcast Clouds21°C9 mph, E100%10000m1013hPa39%